Gurleyville, Connecticut
Current Conditions -  °F | °C
As of 11:10 PM on Friday 19 Dec 2014 (Local Time) from KIJD Reporting Station
Scattered Clouds Scattered Clouds  
Wind Chill: 29°   Ceiling: Unl
Heat Index: 29°   Visibility: 10mi
Dew Point: 21°   Wind: 3mph
Humidity: 72%   Direction: 320°NW
Pressure: 30.14"   Gusts: NA
Location:  41.8004°N, 72.2476°W
Report Text: KIJD 200410Z AUTO 32003KT 10SM SCT027 M02/M06 A3014 RMK AO2 T10171061
Loading
Personal Weather Stations






























Interactive Weather Map New forecast layout! Learn more

10-Day Weather Forecast

Advertisements
Track Severe Weather on mobile